sensor_id;sensor_type;location;lat;lon;timestamp;temperature;humidity
18888;DHT22;9576;47.792;9.628;2023-06-22T00:01:26;20.30;99.90
18888;DHT22;9576;47.792;9.628;2023-06-22T00:04:28;20.20;99.90
18888;DHT22;9576;47.792;9.628;2023-06-22T00:07:32;20.20;99.90
18888;DHT22;9576;47.792;9.628;2023-06-22T00:10:34;20.20;99.90
18888;DHT22;9576;47.792;9.628;2023-06-22T00:13:36;20.20;99.90
18888;DHT22;9576;47.792;9.628;2023-06-22T00:16:37;20.20;99.90
18888;DHT22;9576;47.792;9.628;2023-06-22T00:19:39;20.20;99.90
18888;DHT22;9576;47.792;9.628;2023-06-22T00:22:43;20.20;99.90
18888;DHT22;9576;47.792;9.628;2023-06-22T00:25:45;20.20;99.90
18888;DHT22;9576;47.792;9.628;2023-06-22T00:28:46;20.10;99.90
18888;DHT22;9576;47.792;9.628;2023-06-22T00:31:48;20.00;99.90
18888;DHT22;9576;47.792;9.628;2023-06-22T00:34:50;20.00;99.90
18888;DHT22;9576;47.792;9.628;2023-06-22T00:37:54;19.90;99.90
18888;DHT22;9576;47.792;9.628;2023-06-22T00:41:00;19.90;99.90
18888;DHT22;9576;47.792;9.628;2023-06-22T00:44:02;19.90;99.90
18888;DHT22;9576;47.792;9.628;2023-06-22T00:47:04;19.80;99.90
18888;DHT22;9576;47.792;9.628;2023-06-22T00:50:08;19.80;99.90
18888;DHT22;9576;47.792;9.628;2023-06-22T00:53:11;19.80;99.90
18888;DHT22;9576;47.792;9.628;2023-06-22T00:56:13;19.80;99.90
18888;DHT22;9576;47.792;9.628;2023-06-22T00:59:15;19.80;99.90
18888;DHT22;9576;47.792;9.628;2023-06-22T01:02:18;19.70;99.90
18888;DHT22;9576;47.792;9.628;2023-06-22T01:05:21;19.80;99.90
18888;DHT22;9576;47.792;9.628;2023-06-22T01:08:31;19.70;99.90
18888;DHT22;9576;47.792;9.628;2023-06-22T01:11:41;19.70;99.90
18888;DHT22;9576;47.792;9.628;2023-06-22T01:14:50;19.60;99.90
18888;DHT22;9576;47.792;9.628;2023-06-22T01:17:56;19.60;99.90
18888;DHT22;9576;47.792;9.628;2023-06-22T01:21:00;19.50;99.90
18888;DHT22;9576;47.792;9.628;2023-06-22T01:24:14;19.50;99.90
18888;DHT22;9576;47.792;9.628;2023-06-22T01:27:28;19.50;99.90
18888;DHT22;9576;47.792;9.628;2023-06-22T01:30:34;19.50;99.90
18888;DHT22;9576;47.792;9.628;2023-06-22T01:33:41;19.50;99.90
18888;DHT22;9576;47.792;9.628;2023-06-22T01:36:44;19.40;99.90
18888;DHT22;9576;47.792;9.628;2023-06-22T01:39:47;19.40;99.90
18888;DHT22;9576;47.792;9.628;2023-06-22T01:42:50;19.50;99.90
18888;DHT22;9576;47.792;9.628;2023-06-22T01:45:54;19.50;99.90
18888;DHT22;9576;47.792;9.628;2023-06-22T01:48:56;19.40;99.90
18888;DHT22;9576;47.792;9.628;2023-06-22T01:51:58;19.40;99.90
18888;DHT22;9576;47.792;9.628;2023-06-22T01:55:00;19.40;99.90
18888;DHT22;9576;47.792;9.628;2023-06-22T01:58:02;19.40;99.90
18888;DHT22;9576;47.792;9.628;2023-06-22T02:01:10;19.30;99.90
18888;DHT22;9576;47.792;9.628;2023-06-22T02:04:14;19.30;99.90
18888;DHT22;9576;47.792;9.628;2023-06-22T02:07:20;19.30;99.90
18888;DHT22;9576;47.792;9.628;2023-06-22T02:10:24;19.30;99.90
18888;DHT22;9576;47.792;9.628;2023-06-22T02:13:27;19.30;99.90
18888;DHT22;9576;47.792;9.628;2023-06-22T02:16:32;19.20;99.90
18888;DHT22;9576;47.792;9.628;2023-06-22T02:19:36;19.20;99.90
18888;DHT22;9576;47.792;9.628;2023-06-22T02:22:38;19.20;99.90
18888;DHT22;9576;47.792;9.628;2023-06-22T02:25:40;19.20;99.90
18888;DHT22;9576;47.792;9.628;2023-06-22T02:28:45;19.20;99.90
18888;DHT22;9576;47.792;9.628;2023-06-22T02:31:48;19.10;99.90
18888;DHT22;9576;47.792;9.628;2023-06-22T02:34:52;19.20;99.90
18888;DHT22;9576;47.792;9.628;2023-06-22T02:37:54;19.20;99.90
18888;DHT22;9576;47.792;9.628;2023-06-22T02:40:56;19.10;99.90
18888;DHT22;9576;47.792;9.628;2023-06-22T02:43:58;19.10;99.90
18888;DHT22;9576;47.792;9.628;2023-06-22T02:47:02;19.10;99.90
18888;DHT22;9576;47.792;9.628;2023-06-22T02:50:04;19.10;99.90
18888;DHT22;9576;47.792;9.628;2023-06-22T02:53:06;19.10;99.90
18888;DHT22;9576;47.792;9.628;2023-06-22T02:56:08;19.10;99.90
18888;DHT22;9576;47.792;9.628;2023-06-22T02:59:10;19.10;99.90
18888;DHT22;9576;47.792;9.628;2023-06-22T03:02:13;19.00;99.90
18888;DHT22;9576;47.792;9.628;2023-06-22T03:05:16;19.00;99.90
18888;DHT22;9576;47.792;9.628;2023-06-22T03:08:19;19.00;99.90
18888;DHT22;9576;47.792;9.628;2023-06-22T03:11:21;18.90;99.90
18888;DHT22;9576;47.792;9.628;2023-06-22T03:14:23;18.90;99.90
18888;DHT22;9576;47.792;9.628;2023-06-22T03:17:26;18.80;99.90
18888;DHT22;9576;47.792;9.628;2023-06-22T03:20:28;18.80;99.90
18888;DHT22;9576;47.792;9.628;2023-06-22T03:23:34;18.70;99.90
18888;DHT22;9576;47.792;9.628;2023-06-22T03:26:35;18.60;99.90
18888;DHT22;9576;47.792;9.628;2023-06-22T03:29:37;18.60;99.90
18888;DHT22;9576;47.792;9.628;2023-06-22T03:32:41;18.50;99.90
18888;DHT22;9576;47.792;9.628;2023-06-22T03:35:43;18.50;99.90
18888;DHT22;9576;47.792;9.628;2023-06-22T03:38:46;18.40;99.90
18888;DHT22;9576;47.792;9.628;2023-06-22T03:41:48;18.40;99.90
18888;DHT22;9576;47.792;9.628;2023-06-22T03:44:49;18.50;99.90
18888;DHT22;9576;47.792;9.628;2023-06-22T03:47:53;18.50;99.90
18888;DHT22;9576;47.792;9.628;2023-06-22T03:50:55;18.40;99.90
18888;DHT22;9576;47.792;9.628;2023-06-22T03:53:57;18.50;99.90
18888;DHT22;9576;47.792;9.628;2023-06-22T03:56:58;18.50;99.90
18888;DHT22;9576;47.792;9.628;2023-06-22T04:00:01;18.60;99.90
18888;DHT22;9576;47.792;9.628;2023-06-22T04:03:04;18.60;99.90
18888;DHT22;9576;47.792;9.628;2023-06-22T04:06:08;18.70;99.90
18888;DHT22;9576;47.792;9.628;2023-06-22T04:09:10;18.70;99.90
18888;DHT22;9576;47.792;9.628;2023-06-22T04:12:12;18.80;99.90
18888;DHT22;9576;47.792;9.628;2023-06-22T04:15:14;18.80;99.90
18888;DHT22;9576;47.792;9.628;2023-06-22T04:18:17;18.90;99.90
18888;DHT22;9576;47.792;9.628;2023-06-22T04:21:19;18.90;99.90
18888;DHT22;9576;47.792;9.628;2023-06-22T04:24:21;18.90;99.90
18888;DHT22;9576;47.792;9.628;2023-06-22T04:27:23;19.00;99.90
18888;DHT22;9576;47.792;9.628;2023-06-22T04:30:25;19.00;99.90
18888;DHT22;9576;47.792;9.628;2023-06-22T04:33:28;19.10;99.90
18888;DHT22;9576;47.792;9.628;2023-06-22T04:36:31;19.10;99.90
18888;DHT22;9576;47.792;9.628;2023-06-22T04:39:37;19.10;99.90
18888;DHT22;9576;47.792;9.628;2023-06-22T04:42:39;19.10;99.90
18888;DHT22;9576;47.792;9.628;2023-06-22T04:45:41;19.20;99.90
18888;DHT22;9576;47.792;9.628;2023-06-22T04:48:44;19.20;99.90
18888;DHT22;9576;47.792;9.628;2023-06-22T04:51:46;19.20;99.90
18888;DHT22;9576;47.792;9.628;2023-06-22T04:54:48;19.30;99.90
18888;DHT22;9576;47.792;9.628;2023-06-22T04:57:55;19.20;99.90
18888;DHT22;9576;47.792;9.628;2023-06-22T05:01:05;19.30;99.90
18888;DHT22;9576;47.792;9.628;2023-06-22T05:04:08;19.30;99.90
18888;DHT22;9576;47.792;9.628;2023-06-22T05:07:10;19.30;99.90
18888;DHT22;9576;47.792;9.628;2023-06-22T05:10:12;19.30;99.90
18888;DHT22;9576;47.792;9.628;2023-06-22T05:13:14;19.30;99.90
18888;DHT22;9576;47.792;9.628;2023-06-22T05:16:16;19.30;99.90
18888;DHT22;9576;47.792;9.628;2023-06-22T05:19:19;19.30;99.90
18888;DHT22;9576;47.792;9.628;2023-06-22T05:22:21;19.30;99.90
18888;DHT22;9576;47.792;9.628;2023-06-22T05:25:23;19.30;99.90
18888;DHT22;9576;47.792;9.628;2023-06-22T05:28:25;19.30;99.90
18888;DHT22;9576;47.792;9.628;2023-06-22T05:31:28;19.40;99.90
18888;DHT22;9576;47.792;9.628;2023-06-22T05:34:31;19.40;99.90
18888;DHT22;9576;47.792;9.628;2023-06-22T05:37:33;19.40;99.90
18888;DHT22;9576;47.792;9.628;2023-06-22T05:40:35;19.50;99.90
18888;DHT22;9576;47.792;9.628;2023-06-22T05:43:37;19.60;99.90
18888;DHT22;9576;47.792;9.628;2023-06-22T05:46:41;19.60;99.90
18888;DHT22;9576;47.792;9.628;2023-06-22T05:49:46;19.60;99.90
18888;DHT22;9576;47.792;9.628;2023-06-22T05:52:48;19.70;99.90
18888;DHT22;9576;47.792;9.628;2023-06-22T05:55:50;19.70;99.90
18888;DHT22;9576;47.792;9.628;2023-06-22T05:58:51;19.80;99.90
18888;DHT22;9576;47.792;9.628;2023-06-22T06:01:53;19.80;99.90
18888;DHT22;9576;47.792;9.628;2023-06-22T06:04:57;19.80;99.90
18888;DHT22;9576;47.792;9.628;2023-06-22T06:07:59;19.90;99.90
18888;DHT22;9576;47.792;9.628;2023-06-22T06:11:01;19.90;99.90
18888;DHT22;9576;47.792;9.628;2023-06-22T06:14:03;20.00;99.90
18888;DHT22;9576;47.792;9.628;2023-06-22T06:17:05;20.00;99.90
18888;DHT22;9576;47.792;9.628;2023-06-22T06:20:10;20.10;99.90
18888;DHT22;9576;47.792;9.628;2023-06-22T06:23:12;20.20;99.90
18888;DHT22;9576;47.792;9.628;2023-06-22T06:26:14;20.20;99.90
18888;DHT22;9576;47.792;9.628;2023-06-22T06:29:17;20.30;99.90
18888;DHT22;9576;47.792;9.628;2023-06-22T06:32:19;20.30;99.90
18888;DHT22;9576;47.792;9.628;2023-06-22T06:35:23;20.40;99.90
18888;DHT22;9576;47.792;9.628;2023-06-22T06:38:25;20.50;99.90
18888;DHT22;9576;47.792;9.628;2023-06-22T06:41:27;20.60;99.90
18888;DHT22;9576;47.792;9.628;2023-06-22T06:44:28;20.60;99.90
18888;DHT22;9576;47.792;9.628;2023-06-22T06:47:30;20.70;99.90
18888;DHT22;9576;47.792;9.628;2023-06-22T06:50:34;20.80;99.90
18888;DHT22;9576;47.792;9.628;2023-06-22T06:53:36;20.90;99.90
18888;DHT22;9576;47.792;9.628;2023-06-22T06:56:38;21.00;99.90
18888;DHT22;9576;47.792;9.628;2023-06-22T06:59:40;21.10;99.90
18888;DHT22;9576;47.792;9.628;2023-06-22T07:02:43;21.10;99.90
18888;DHT22;9576;47.792;9.628;2023-06-22T07:05:46;21.20;99.90
18888;DHT22;9576;47.792;9.628;2023-06-22T07:08:48;21.30;99.90
18888;DHT22;9576;47.792;9.628;2023-06-22T07:11:50;21.40;99.90
18888;DHT22;9576;47.792;9.628;2023-06-22T07:14:52;21.40;99.90
18888;DHT22;9576;47.792;9.628;2023-06-22T07:17:54;21.50;99.90
18888;DHT22;9576;47.792;9.628;2023-06-22T07:20:57;21.60;99.90
18888;DHT22;9576;47.792;9.628;2023-06-22T07:23:59;21.70;99.90
18888;DHT22;9576;47.792;9.628;2023-06-22T07:27:01;21.80;99.90
18888;DHT22;9576;47.792;9.628;2023-06-22T07:30:05;21.90;99.90
18888;DHT22;9576;47.792;9.628;2023-06-22T07:33:07;22.00;99.90
18888;DHT22;9576;47.792;9.628;2023-06-22T07:36:10;22.10;99.90
18888;DHT22;9576;47.792;9.628;2023-06-22T07:39:12;22.20;99.90
18888;DHT22;9576;47.792;9.628;2023-06-22T07:42:15;22.20;99.90
18888;DHT22;9576;47.792;9.628;2023-06-22T07:45:19;22.30;99.90
18888;DHT22;9576;47.792;9.628;2023-06-22T07:48:21;22.40;99.90
18888;DHT22;9576;47.792;9.628;2023-06-22T07:51:25;22.50;99.90
18888;DHT22;9576;47.792;9.628;2023-06-22T07:54:27;22.60;99.90
18888;DHT22;9576;47.792;9.628;2023-06-22T07:57:28;22.70;99.90
18888;DHT22;9576;47.792;9.628;2023-06-22T08:00:34;22.80;99.90
18888;DHT22;9576;47.792;9.628;2023-06-22T08:03:36;22.90;99.90
18888;DHT22;9576;47.792;9.628;2023-06-22T08:06:40;23.00;99.90
18888;DHT22;9576;47.792;9.628;2023-06-22T08:09:46;23.10;99.90
18888;DHT22;9576;47.792;9.628;2023-06-22T08:12:48;23.20;99.90
18888;DHT22;9576;47.792;9.628;2023-06-22T08:15:50;23.40;99.90
18888;DHT22;9576;47.792;9.628;2023-06-22T08:18:52;23.50;99.90
18888;DHT22;9576;47.792;9.628;2023-06-22T08:21:56;23.70;99.90
18888;DHT22;9576;47.792;9.628;2023-06-22T08:24:58;23.90;99.90
18888;DHT22;9576;47.792;9.628;2023-06-22T08:28:00;24.20;99.90
18888;DHT22;9576;47.792;9.628;2023-06-22T08:31:02;24.50;99.90
18888;DHT22;9576;47.792;9.628;2023-06-22T08:34:04;24.70;99.90
18888;DHT22;9576;47.792;9.628;2023-06-22T08:37:08;25.00;99.90
18888;DHT22;9576;47.792;9.628;2023-06-22T08:40:10;25.10;99.90
18888;DHT22;9576;47.792;9.628;2023-06-22T08:43:13;25.30;99.90
18888;DHT22;9576;47.792;9.628;2023-06-22T08:46:15;25.30;99.90
18888;DHT22;9576;47.792;9.628;2023-06-22T08:49:20;25.30;99.90
18888;DHT22;9576;47.792;9.628;2023-06-22T08:52:24;25.20;99.90
18888;DHT22;9576;47.792;9.628;2023-06-22T08:55:26;25.30;99.90
18888;DHT22;9576;47.792;9.628;2023-06-22T08:58:28;25.30;99.90
18888;DHT22;9576;47.792;9.628;2023-06-22T09:01:30;25.40;99.90
18888;DHT22;9576;47.792;9.628;2023-06-22T09:04:32;25.40;99.90
18888;DHT22;9576;47.792;9.628;2023-06-22T09:07:36;25.60;99.90
18888;DHT22;9576;47.792;9.628;2023-06-22T09:10:38;25.70;99.90
18888;DHT22;9576;47.792;9.628;2023-06-22T09:13:40;25.90;99.90
18888;DHT22;9576;47.792;9.628;2023-06-22T09:16:42;26.00;99.90
18888;DHT22;9576;47.792;9.628;2023-06-22T09:19:44;25.90;99.90
18888;DHT22;9576;47.792;9.628;2023-06-22T09:22:48;25.90;99.90
18888;DHT22;9576;47.792;9.628;2023-06-22T09:25:50;25.90;99.90
18888;DHT22;9576;47.792;9.628;2023-06-22T09:28:52;25.90;99.90
18888;DHT22;9576;47.792;9.628;2023-06-22T09:31:54;26.10;99.90
18888;DHT22;9576;47.792;9.628;2023-06-22T09:34:56;26.30;99.90
18888;DHT22;9576;47.792;9.628;2023-06-22T09:37:59;26.30;99.90
18888;DHT22;9576;47.792;9.628;2023-06-22T09:41:01;26.50;99.90
18888;DHT22;9576;47.792;9.628;2023-06-22T09:44:03;26.60;99.90
18888;DHT22;9576;47.792;9.628;2023-06-22T09:47:06;26.70;99.90
18888;DHT22;9576;47.792;9.628;2023-06-22T09:50:09;26.70;99.90
18888;DHT22;9576;47.792;9.628;2023-06-22T09:53:12;26.90;99.90
18888;DHT22;9576;47.792;9.628;2023-06-22T09:56:14;27.00;99.90
18888;DHT22;9576;47.792;9.628;2023-06-22T09:59:16;27.20;99.90
18888;DHT22;9576;47.792;9.628;2023-06-22T10:02:18;27.40;99.90
18888;DHT22;9576;47.792;9.628;2023-06-22T10:05:20;27.60;99.90
18888;DHT22;9576;47.792;9.628;2023-06-22T10:08:23;27.90;99.90
18888;DHT22;9576;47.792;9.628;2023-06-22T10:11:25;28.00;99.90
18888;DHT22;9576;47.792;9.628;2023-06-22T10:14:30;28.00;99.90
18888;DHT22;9576;47.792;9.628;2023-06-22T10:17:32;28.00;99.90
18888;DHT22;9576;47.792;9.628;2023-06-22T10:20:35;28.00;99.90
18888;DHT22;9576;47.792;9.628;2023-06-22T10:23:39;28.30;99.90
18888;DHT22;9576;47.792;9.628;2023-06-22T10:26:41;28.50;99.90
18888;DHT22;9576;47.792;9.628;2023-06-22T10:29:43;28.50;99.90
18888;DHT22;9576;47.792;9.628;2023-06-22T10:32:45;28.50;99.90
18888;DHT22;9576;47.792;9.628;2023-06-22T10:35:47;28.40;99.90
18888;DHT22;9576;47.792;9.628;2023-06-22T10:38:50;28.40;99.90
18888;DHT22;9576;47.792;9.628;2023-06-22T10:41:53;28.50;99.90
18888;DHT22;9576;47.792;9.628;2023-06-22T10:44:56;28.60;99.90
18888;DHT22;9576;47.792;9.628;2023-06-22T10:47:58;28.70;99.90
18888;DHT22;9576;47.792;9.628;2023-06-22T10:51:00;28.80;99.90
18888;DHT22;9576;47.792;9.628;2023-06-22T10:54:03;29.00;99.90
18888;DHT22;9576;47.792;9.628;2023-06-22T10:57:06;29.30;99.90
18888;DHT22;9576;47.792;9.628;2023-06-22T11:00:09;29.30;99.90
18888;DHT22;9576;47.792;9.628;2023-06-22T11:03:12;29.10;99.90
18888;DHT22;9576;47.792;9.628;2023-06-22T11:06:14;29.30;99.90
18888;DHT22;9576;47.792;9.628;2023-06-22T11:09:24;29.60;99.90
18888;DHT22;9576;47.792;9.628;2023-06-22T11:12:26;29.80;99.90
18888;DHT22;9576;47.792;9.628;2023-06-22T11:15:28;30.00;99.90
18888;DHT22;9576;47.792;9.628;2023-06-22T11:18:31;30.10;99.90
18888;DHT22;9576;47.792;9.628;2023-06-22T11:21:34;30.40;99.90
18888;DHT22;9576;47.792;9.628;2023-06-22T11:24:37;30.50;99.90
18888;DHT22;9576;47.792;9.628;2023-06-22T11:27:39;30.80;99.90
18888;DHT22;9576;47.792;9.628;2023-06-22T11:30:41;31.10;99.90
18888;DHT22;9576;47.792;9.628;2023-06-22T11:33:43;31.50;99.90
18888;DHT22;9576;47.792;9.628;2023-06-22T11:36:46;31.70;99.90
18888;DHT22;9576;47.792;9.628;2023-06-22T11:39:50;31.70;99.90
18888;DHT22;9576;47.792;9.628;2023-06-22T11:42:52;31.60;99.90
18888;DHT22;9576;47.792;9.628;2023-06-22T11:45:54;31.20;99.90
18888;DHT22;9576;47.792;9.628;2023-06-22T11:48:56;30.70;99.90
18888;DHT22;9576;47.792;9.628;2023-06-22T11:51:58;30.40;99.90
18888;DHT22;9576;47.792;9.628;2023-06-22T11:55:02;30.30;99.90
18888;DHT22;9576;47.792;9.628;2023-06-22T11:58:05;30.40;99.90
18888;DHT22;9576;47.792;9.628;2023-06-22T12:01:08;30.60;99.90
18888;DHT22;9576;47.792;9.628;2023-06-22T12:04:10;30.60;99.90
18888;DHT22;9576;47.792;9.628;2023-06-22T12:07:12;30.70;99.90
18888;DHT22;9576;47.792;9.628;2023-06-22T12:10:16;30.80;99.90
18888;DHT22;9576;47.792;9.628;2023-06-22T12:13:18;30.50;99.90
18888;DHT22;9576;47.792;9.628;2023-06-22T12:16:20;30.30;99.90
18888;DHT22;9576;47.792;9.628;2023-06-22T12:19:22;30.10;99.90
18888;DHT22;9576;47.792;9.628;2023-06-22T12:22:24;29.80;99.90
18888;DHT22;9576;47.792;9.628;2023-06-22T12:25:27;29.70;99.90
18888;DHT22;9576;47.792;9.628;2023-06-22T12:28:29;29.40;99.90
18888;DHT22;9576;47.792;9.628;2023-06-22T12:31:31;29.40;99.90
18888;DHT22;9576;47.792;9.628;2023-06-22T12:34:33;29.40;99.90
18888;DHT22;9576;47.792;9.628;2023-06-22T12:37:34;29.40;99.90
18888;DHT22;9576;47.792;9.628;2023-06-22T12:40:38;29.40;99.90
18888;DHT22;9576;47.792;9.628;2023-06-22T12:43:40;29.30;99.90
18888;DHT22;9576;47.792;9.628;2023-06-22T12:46:42;29.30;99.90
18888;DHT22;9576;47.792;9.628;2023-06-22T12:49:44;29.40;99.90
18888;DHT22;9576;47.792;9.628;2023-06-22T12:52:46;29.50;99.90
18888;DHT22;9576;47.792;9.628;2023-06-22T12:55:49;29.60;99.90
18888;DHT22;9576;47.792;9.628;2023-06-22T12:58:51;29.60;99.90
18888;DHT22;9576;47.792;9.628;2023-06-22T13:01:53;29.60;99.90
18888;DHT22;9576;47.792;9.628;2023-06-22T13:04:55;29.60;99.90
18888;DHT22;9576;47.792;9.628;2023-06-22T13:07:57;29.50;99.90
18888;DHT22;9576;47.792;9.628;2023-06-22T13:11:00;29.50;99.90
18888;DHT22;9576;47.792;9.628;2023-06-22T13:14:02;29.60;99.90
18888;DHT22;9576;47.792;9.628;2023-06-22T13:17:04;29.60;99.90
18888;DHT22;9576;47.792;9.628;2023-06-22T13:20:07;29.80;99.90
18888;DHT22;9576;47.792;9.628;2023-06-22T13:23:10;30.20;99.90
18888;DHT22;9576;47.792;9.628;2023-06-22T13:26:13;30.70;99.90
18888;DHT22;9576;47.792;9.628;2023-06-22T13:29:15;31.00;99.90
18888;DHT22;9576;47.792;9.628;2023-06-22T13:32:17;31.30;99.90
18888;DHT22;9576;47.792;9.628;2023-06-22T13:35:19;31.40;99.90
18888;DHT22;9576;47.792;9.628;2023-06-22T13:38:20;31.60;99.90
18888;DHT22;9576;47.792;9.628;2023-06-22T13:41:24;32.10;99.90
18888;DHT22;9576;47.792;9.628;2023-06-22T13:44:26;32.30;99.90
18888;DHT22;9576;47.792;9.628;2023-06-22T13:47:29;32.50;99.90
18888;DHT22;9576;47.792;9.628;2023-06-22T13:50:31;32.40;99.90
18888;DHT22;9576;47.792;9.628;2023-06-22T13:53:33;32.70;99.90
18888;DHT22;9576;47.792;9.628;2023-06-22T13:56:36;33.10;99.90
18888;DHT22;9576;47.792;9.628;2023-06-22T13:59:38;33.40;99.90
18888;DHT22;9576;47.792;9.628;2023-06-22T14:02:40;33.70;99.90
18888;DHT22;9576;47.792;9.628;2023-06-22T14:05:42;34.00;99.90
18888;DHT22;9576;47.792;9.628;2023-06-22T14:08:44;34.40;99.90
18888;DHT22;9576;47.792;9.628;2023-06-22T14:11:47;34.70;99.90
18888;DHT22;9576;47.792;9.628;2023-06-22T14:14:49;34.80;99.90
18888;DHT22;9576;47.792;9.628;2023-06-22T14:17:52;34.90;99.90
18888;DHT22;9576;47.792;9.628;2023-06-22T14:20:54;35.10;99.90
18888;DHT22;9576;47.792;9.628;2023-06-22T14:23:56;35.50;99.90
18888;DHT22;9576;47.792;9.628;2023-06-22T14:26:59;35.40;99.90
18888;DHT22;9576;47.792;9.628;2023-06-22T14:30:04;35.60;99.90
18888;DHT22;9576;47.792;9.628;2023-06-22T14:33:06;35.30;99.90
18888;DHT22;9576;47.792;9.628;2023-06-22T14:36:09;34.70;99.90
18888;DHT22;9576;47.792;9.628;2023-06-22T14:39:11;34.00;99.90
18888;DHT22;9576;47.792;9.628;2023-06-22T14:42:15;33.30;99.90
18888;DHT22;9576;47.792;9.628;2023-06-22T14:45:17;32.90;99.90
18888;DHT22;9576;47.792;9.628;2023-06-22T14:48:18;32.60;99.90
18888;DHT22;9576;47.792;9.628;2023-06-22T14:51:20;32.50;99.90
18888;DHT22;9576;47.792;9.628;2023-06-22T14:54:22;32.30;99.90
18888;DHT22;9576;47.792;9.628;2023-06-22T14:57:25;31.90;99.90
18888;DHT22;9576;47.792;9.628;2023-06-22T15:00:27;31.50;99.90
18888;DHT22;9576;47.792;9.628;2023-06-22T15:03:30;30.90;99.90
18888;DHT22;9576;47.792;9.628;2023-06-22T15:06:32;30.40;99.90
18888;DHT22;9576;47.792;9.628;2023-06-22T15:09:34;30.10;99.90
18888;DHT22;9576;47.792;9.628;2023-06-22T15:12:41;29.90;99.90
18888;DHT22;9576;47.792;9.628;2023-06-22T15:15:43;29.70;99.90
18888;DHT22;9576;47.792;9.628;2023-06-22T15:18:44;29.70;99.90
18888;DHT22;9576;47.792;9.628;2023-06-22T15:21:48;29.90;99.90
18888;DHT22;9576;47.792;9.628;2023-06-22T15:24:50;29.90;99.90
18888;DHT22;9576;47.792;9.628;2023-06-22T15:27:55;30.00;99.90
18888;DHT22;9576;47.792;9.628;2023-06-22T15:30:57;30.00;99.90
18888;DHT22;9576;47.792;9.628;2023-06-22T15:33:58;30.10;99.90
18888;DHT22;9576;47.792;9.628;2023-06-22T15:37:01;30.30;99.90
18888;DHT22;9576;47.792;9.628;2023-06-22T15:40:04;30.50;99.90
18888;DHT22;9576;47.792;9.628;2023-06-22T15:43:10;31.10;99.90
18888;DHT22;9576;47.792;9.628;2023-06-22T15:46:12;31.80;99.90
18888;DHT22;9576;47.792;9.628;2023-06-22T15:49:14;32.50;99.90
18888;DHT22;9576;47.792;9.628;2023-06-22T15:52:17;33.00;99.90
18888;DHT22;9576;47.792;9.628;2023-06-22T15:55:19;33.40;99.90
18888;DHT22;9576;47.792;9.628;2023-06-22T15:58:23;33.50;99.90
18888;DHT22;9576;47.792;9.628;2023-06-22T16:01:25;33.50;99.90
18888;DHT22;9576;47.792;9.628;2023-06-22T16:04:26;33.20;99.90
18888;DHT22;9576;47.792;9.628;2023-06-22T16:07:28;32.90;99.90
18888;DHT22;9576;47.792;9.628;2023-06-22T16:10:30;33.00;99.90
18888;DHT22;9576;47.792;9.628;2023-06-22T16:13:33;33.30;99.90
18888;DHT22;9576;47.792;9.628;2023-06-22T16:16:35;33.40;99.10
18888;DHT22;9576;47.792;9.628;2023-06-22T16:19:37;33.40;99.30
18888;DHT22;9576;47.792;9.628;2023-06-22T16:22:39;33.80;98.20
18888;DHT22;9576;47.792;9.628;2023-06-22T16:25:42;34.00;96.90
18888;DHT22;9576;47.792;9.628;2023-06-22T16:28:45;33.80;96.70
18888;DHT22;9576;47.792;9.628;2023-06-22T16:31:47;33.90;96.90
18888;DHT22;9576;47.792;9.628;2023-06-22T16:34:49;34.00;97.20
18888;DHT22;9576;47.792;9.628;2023-06-22T16:37:53;33.30;96.60
18888;DHT22;9576;47.792;9.628;2023-06-22T16:40:55;32.40;97.40
18888;DHT22;9576;47.792;9.628;2023-06-22T16:43:58;32.10;98.30
18888;DHT22;9576;47.792;9.628;2023-06-22T16:47:05;31.70;98.50
18888;DHT22;9576;47.792;9.628;2023-06-22T16:50:09;31.40;98.90
18888;DHT22;9576;47.792;9.628;2023-06-22T16:53:12;31.10;99.50
18888;DHT22;9576;47.792;9.628;2023-06-22T16:56:13;30.50;99.90
18888;DHT22;9576;47.792;9.628;2023-06-22T16:59:17;29.80;99.90
18888;DHT22;9576;47.792;9.628;2023-06-22T17:02:19;29.20;99.90
18888;DHT22;9576;47.792;9.628;2023-06-22T17:05:26;28.80;99.90
18888;DHT22;9576;47.792;9.628;2023-06-22T17:08:28;28.40;99.90
18888;DHT22;9576;47.792;9.628;2023-06-22T17:11:32;28.10;99.90
18888;DHT22;9576;47.792;9.628;2023-06-22T17:14:39;27.80;99.90
18888;DHT22;9576;47.792;9.628;2023-06-22T17:17:41;27.60;99.90
18888;DHT22;9576;47.792;9.628;2023-06-22T17:20:44;27.50;99.90
18888;DHT22;9576;47.792;9.628;2023-06-22T17:23:46;27.30;99.90
18888;DHT22;9576;47.792;9.628;2023-06-22T17:26:53;27.10;99.90
18888;DHT22;9576;47.792;9.628;2023-06-22T17:30:15;26.90;99.90
18888;DHT22;9576;47.792;9.628;2023-06-22T17:33:18;26.80;99.90
18888;DHT22;9576;47.792;9.628;2023-06-22T17:36:21;26.60;99.90
18888;DHT22;9576;47.792;9.628;2023-06-22T17:39:24;26.40;99.90
18888;DHT22;9576;47.792;9.628;2023-06-22T17:42:28;26.20;99.90
18888;DHT22;9576;47.792;9.628;2023-06-22T17:45:31;26.10;99.90
18888;DHT22;9576;47.792;9.628;2023-06-22T17:48:33;25.90;99.90
18888;DHT22;9576;47.792;9.628;2023-06-22T17:51:35;25.80;99.90
18888;DHT22;9576;47.792;9.628;2023-06-22T17:54:38;25.60;99.90
18888;DHT22;9576;47.792;9.628;2023-06-22T17:57:41;25.50;99.90
18888;DHT22;9576;47.792;9.628;2023-06-22T18:00:48;25.30;99.90
18888;DHT22;9576;47.792;9.628;2023-06-22T18:03:50;25.20;99.90
18888;DHT22;9576;47.792;9.628;2023-06-22T18:06:53;25.00;99.90
18888;DHT22;9576;47.792;9.628;2023-06-22T18:09:56;24.90;99.90
18888;DHT22;9576;47.792;9.628;2023-06-22T18:13:00;24.60;99.90
18888;DHT22;9576;47.792;9.628;2023-06-22T18:16:05;24.40;99.90
18888;DHT22;9576;47.792;9.628;2023-06-22T18:19:08;24.10;99.90
18888;DHT22;9576;47.792;9.628;2023-06-22T18:22:11;23.70;99.90
18888;DHT22;9576;47.792;9.628;2023-06-22T18:25:13;23.60;99.90
18888;DHT22;9576;47.792;9.628;2023-06-22T18:28:18;23.60;99.90
18888;DHT22;9576;47.792;9.628;2023-06-22T18:31:22;23.40;99.90
18888;DHT22;9576;47.792;9.628;2023-06-22T18:34:25;23.20;99.90
18888;DHT22;9576;47.792;9.628;2023-06-22T18:37:31;23.10;99.90
18888;DHT22;9576;47.792;9.628;2023-06-22T18:40:33;22.90;99.90
18888;DHT22;9576;47.792;9.628;2023-06-22T18:43:37;22.80;99.90
18888;DHT22;9576;47.792;9.628;2023-06-22T18:46:41;22.70;99.90
18888;DHT22;9576;47.792;9.628;2023-06-22T18:49:47;22.50;99.90
18888;DHT22;9576;47.792;9.628;2023-06-22T18:53:01;22.40;99.90
18888;DHT22;9576;47.792;9.628;2023-06-22T18:56:11;22.30;99.90
18888;DHT22;9576;47.792;9.628;2023-06-22T18:59:14;22.10;99.90
18888;DHT22;9576;47.792;9.628;2023-06-22T19:02:34;22.10;99.90
18888;DHT22;9576;47.792;9.628;2023-06-22T19:05:38;22.00;99.90
18888;DHT22;9576;47.792;9.628;2023-06-22T19:09:14;22.00;99.90
18888;DHT22;9576;47.792;9.628;2023-06-22T19:12:21;21.90;99.90
18888;DHT22;9576;47.792;9.628;2023-06-22T19:15:30;21.80;99.90
18888;DHT22;9576;47.792;9.628;2023-06-22T19:18:36;21.70;99.90
18888;DHT22;9576;47.792;9.628;2023-06-22T19:21:38;21.70;99.90
18888;DHT22;9576;47.792;9.628;2023-06-22T19:24:48;21.60;99.90
18888;DHT22;9576;47.792;9.628;2023-06-22T19:27:51;21.60;99.90
18888;DHT22;9576;47.792;9.628;2023-06-22T19:30:55;21.60;99.90
18888;DHT22;9576;47.792;9.628;2023-06-22T19:34:02;21.60;99.90